KPWG

Mc Gregor Executive Airport

Waco, Texas, USA
METAR KPWG 172009Z AUTO 36013KT 2SM BR OVC005 11/10 A3031 RMK AO2 CIG 003V010
Observed Flight Rules
Oct-17 @ 20:09 UTC (22 minutes ago) Instrument Flight Rules
Wind Visibility Clouds Conditions
360° at 13 knots 2 miles
  • Overcast at 500' AGL
  • Mist
Temperatures Readings
Current 11°C / 52°F
Dewpoint 10°C / 50°F
Humidity 94%
Altimeter 30.31" Hg
Pressure 1026 hPa
Elevation 180
METAR KPWG 172009Z AUTO 36013KT 2SM BR OVC005 11/10 A3031 RMK AO2 CIG 003V010
Observed Flight Rules
Oct-17 @ 20:09 UTC
(22 minutes ago)
IFR
Wind Visibility
360° at 13 knots 2 miles
Clouds
  • Overcast at 500' AGL
Conditions
  • Mist
Temperature Dewpoint
11°C / 52°F 10°C / 50°F
Humidity Altimeter Pressure
94% 30.31" Hg 1026 hPa